createdAt,value
2017-09-22T00:00:39.497Z,16.5
2017-09-22T00:01:41.895Z,16.4
2017-09-22T00:02:44.288Z,16.4
2017-09-22T00:03:46.685Z,16.4
2017-09-22T00:04:49.075Z,16.4
2017-09-22T00:05:51.469Z,16.4
2017-09-22T00:06:54.207Z,16.3
2017-09-22T00:07:56.603Z,16.3
2017-09-22T00:08:58.998Z,16.3
2017-09-22T00:10:01.390Z,16.3
2017-09-22T00:11:04.114Z,16.3
2017-09-22T00:12:06.510Z,16.3
2017-09-22T00:13:08.901Z,16.3
2017-09-22T00:14:11.287Z,16.2
2017-09-22T00:15:13.683Z,16.2
2017-09-22T00:16:16.412Z,16.2
2017-09-22T00:17:19.137Z,16.2
2017-09-22T00:18:21.535Z,16.2
2017-09-22T00:19:23.928Z,16.2
2017-09-22T00:20:26.662Z,16.2
2017-09-22T00:21:29.047Z,16.2
2017-09-22T00:22:31.449Z,16.2
2017-09-22T00:23:33.842Z,16.2
2017-09-22T00:24:36.228Z,16.2
2017-09-22T00:25:38.622Z,16.2
2017-09-22T00:26:41.015Z,16.3
2017-09-22T00:27:43.408Z,16.3
2017-09-22T00:28:45.808Z,16.3
2017-09-22T00:29:48.191Z,16.3
2017-09-22T00:30:50.583Z,16.3
2017-09-22T00:31:53.348Z,16.3
2017-09-22T00:32:55.737Z,16.3
2017-09-22T00:33:58.129Z,16.3
2017-09-22T00:35:00.520Z,16.3
2017-09-22T00:36:02.900Z,16.3
2017-09-22T00:37:05.305Z,16.3
2017-09-22T00:38:07.696Z,16.3
2017-09-22T00:39:10.079Z,16.3
2017-09-22T00:40:12.478Z,16.3
2017-09-22T00:41:14.871Z,16.3
2017-09-22T00:42:17.263Z,16.2
2017-09-22T00:43:19.662Z,16.2
2017-09-22T00:44:22.045Z,16.2
2017-09-22T00:45:24.436Z,16.1
2017-09-22T00:46:26.834Z,16.1
2017-09-22T00:47:29.221Z,16.1
2017-09-22T00:48:31.610Z,16.1
2017-09-22T00:49:34.006Z,16.1
2017-09-22T00:50:36.745Z,16
2017-09-22T00:51:39.137Z,16
2017-09-22T00:52:41.525Z,16
2017-09-22T00:53:44.053Z,16
2017-09-22T00:54:46.447Z,15.9
2017-09-22T00:55:48.849Z,15.9
2017-09-22T00:56:51.583Z,15.9
2017-09-22T00:57:53.977Z,15.9
2017-09-22T00:58:56.705Z,15.9
2017-09-22T00:59:59.099Z,15.9
2017-09-22T01:01:01.500Z,15.9
2017-09-22T01:02:04.231Z,15.9
2017-09-22T01:03:06.614Z,15.9
2017-09-22T01:04:09.351Z,15.9
2017-09-22T01:05:11.744Z,15.9
2017-09-22T01:06:14.135Z,15.9
2017-09-22T01:07:16.532Z,15.9
2017-09-22T01:08:18.919Z,15.9
2017-09-22T01:09:21.311Z,15.9
2017-09-22T01:10:23.710Z,15.9
2017-09-22T01:11:26.108Z,15.9
2017-09-22T01:12:28.503Z,15.9
2017-09-22T01:13:30.899Z,16
2017-09-22T01:14:33.283Z,16
2017-09-22T01:15:35.672Z,16
2017-09-22T01:16:38.066Z,16
2017-09-22T01:17:40.457Z,16
2017-09-22T01:18:43.185Z,16
2017-09-22T01:19:45.577Z,16
2017-09-22T01:20:47.976Z,16
2017-09-22T01:21:50.697Z,16
2017-09-22T01:22:53.087Z,16
2017-09-22T01:23:55.477Z,16
2017-09-22T01:24:58.212Z,16
2017-09-22T01:26:00.600Z,16
2017-09-22T01:27:03.340Z,16
2017-09-22T01:28:05.722Z,16
2017-09-22T01:29:08.123Z,15.9
2017-09-22T01:30:10.515Z,15.9
2017-09-22T01:31:12.906Z,15.9
2017-09-22T01:32:15.298Z,15.9
2017-09-22T01:33:17.695Z,15.9
2017-09-22T01:34:20.083Z,16
2017-09-22T01:35:22.478Z,16
2017-09-22T01:36:24.861Z,16
2017-09-22T01:37:27.303Z,16
2017-09-22T01:38:29.702Z,16
2017-09-22T01:39:32.089Z,16
2017-09-22T01:40:34.485Z,16
2017-09-22T01:41:37.237Z,16
2017-09-22T01:42:39.627Z,16
2017-09-22T01:43:42.023Z,16
2017-09-22T01:44:44.413Z,16
2017-09-22T01:45:46.793Z,16
2017-09-22T01:46:49.188Z,16
2017-09-22T01:47:51.581Z,15.9
2017-09-22T01:48:53.973Z,15.9
2017-09-22T01:49:56.364Z,15.9
2017-09-22T01:50:58.768Z,15.8
2017-09-22T01:52:01.154Z,15.8
2017-09-22T01:53:03.542Z,15.7
2017-09-22T01:54:06.274Z,15.7
2017-09-22T01:55:08.669Z,15.6
2017-09-22T01:56:11.058Z,15.6
2017-09-22T01:57:13.452Z,15.6
2017-09-22T01:58:15.841Z,15.6
2017-09-22T01:59:18.234Z,15.5
2017-09-22T02:00:21.295Z,15.5
2017-09-22T02:01:23.691Z,15.4
2017-09-22T02:02:26.077Z,15.4
2017-09-22T02:03:28.466Z,15.4
2017-09-22T02:04:30.856Z,15.4
2017-09-22T02:05:33.596Z,15.4
2017-09-22T02:06:36.325Z,15.4
2017-09-22T02:07:38.714Z,15.4
2017-09-22T02:08:41.106Z,15.4
2017-09-22T02:09:43.506Z,15.5
2017-09-22T02:10:45.897Z,15.5
2017-09-22T02:11:48.284Z,15.5
2017-09-22T02:12:50.673Z,15.5
2017-09-22T02:13:53.061Z,15.5
2017-09-22T02:14:55.446Z,15.5
2017-09-22T02:15:57.839Z,15.6
2017-09-22T02:17:00.225Z,15.6
2017-09-22T02:18:02.614Z,15.5
2017-09-22T02:19:05.014Z,15.5
2017-09-22T02:20:07.398Z,15.5
2017-09-22T02:21:09.788Z,15.5
2017-09-22T02:22:12.514Z,15.5
2017-09-22T02:23:14.907Z,15.5
2017-09-22T02:24:17.290Z,15.4
2017-09-22T02:25:19.684Z,15.4
2017-09-22T02:26:22.081Z,15.5
2017-09-22T02:27:24.467Z,15.4
2017-09-22T02:28:26.861Z,15.5
2017-09-22T02:29:29.260Z,15.5
2017-09-22T02:30:31.643Z,15.5
2017-09-22T02:31:34.040Z,15.5
2017-09-22T02:32:36.432Z,15.5
2017-09-22T02:33:38.818Z,15.6
2017-09-22T02:34:41.213Z,15.6
2017-09-22T02:35:44.309Z,15.6
2017-09-22T02:36:46.696Z,15.6
2017-09-22T02:37:49.088Z,15.5
2017-09-22T02:38:51.482Z,15.5
2017-09-22T02:39:53.873Z,15.5
2017-09-22T02:40:56.265Z,15.5
2017-09-22T02:41:58.658Z,15.4
2017-09-22T02:43:01.049Z,15.4
2017-09-22T02:44:03.444Z,15.4
2017-09-22T02:45:06.171Z,15.4
2017-09-22T02:46:08.561Z,15.3
2017-09-22T02:47:10.957Z,15.3
2017-09-22T02:48:13.352Z,15.3
2017-09-22T02:49:15.740Z,15.3
2017-09-22T02:50:18.128Z,15.3
2017-09-22T02:51:20.858Z,15.3
2017-09-22T02:52:23.245Z,15.3
2017-09-22T02:53:25.632Z,15.3
2017-09-22T02:54:28.368Z,15.3
2017-09-22T02:55:31.093Z,15.3
2017-09-22T02:56:33.486Z,15.3
2017-09-22T02:57:35.878Z,15.3
2017-09-22T02:58:38.271Z,15.3
2017-09-22T02:59:40.660Z,15.3
2017-09-22T03:00:43.058Z,15.3
2017-09-22T03:01:45.444Z,15.3
2017-09-22T03:02:47.834Z,15.2
2017-09-22T03:03:50.908Z,15.3
2017-09-22T03:04:53.296Z,15.3
2017-09-22T03:05:55.683Z,15.3
2017-09-22T03:06:58.080Z,15.2
2017-09-22T03:08:00.464Z,15.2
2017-09-22T03:09:03.204Z,15.2
2017-09-22T03:10:05.595Z,15.2
2017-09-22T03:11:07.983Z,15.2
2017-09-22T03:12:10.378Z,15.2
2017-09-22T03:13:12.772Z,15.2
2017-09-22T03:14:15.160Z,15.2
2017-09-22T03:15:17.555Z,15.2
2017-09-22T03:16:19.936Z,15.2
2017-09-22T03:17:22.326Z,15.2
2017-09-22T03:18:24.721Z,15.2
2017-09-22T03:19:27.114Z,15.2
2017-09-22T03:20:29.500Z,15.2
2017-09-22T03:21:31.893Z,15.2
2017-09-22T03:22:34.283Z,15.2
2017-09-22T03:23:36.669Z,15.3
2017-09-22T03:24:39.058Z,15.3
2017-09-22T03:25:41.457Z,15.3
2017-09-22T03:26:44.188Z,15.3
2017-09-22T03:27:46.576Z,15.3
2017-09-22T03:28:48.964Z,15.3
2017-09-22T03:29:51.354Z,15.4
2017-09-22T03:30:53.749Z,15.4
2017-09-22T03:31:56.146Z,15.3
2017-09-22T03:32:58.868Z,15.3
2017-09-22T03:34:01.621Z,15.3
2017-09-22T03:35:04.009Z,15.4
2017-09-22T03:36:06.408Z,15.4
2017-09-22T03:37:08.800Z,15.4
2017-09-22T03:38:11.186Z,15.4
2017-09-22T03:39:13.575Z,15.4
2017-09-22T03:40:16.310Z,15.5
2017-09-22T03:41:18.699Z,15.5
2017-09-22T03:42:21.424Z,15.5
2017-09-22T03:43:24.173Z,15.5
2017-09-22T03:44:26.559Z,15.6
2017-09-22T03:45:29.292Z,15.6
2017-09-22T03:46:31.684Z,15.6
2017-09-22T03:47:34.066Z,15.6
2017-09-22T03:48:36.467Z,15.6
2017-09-22T03:49:38.862Z,15.6
2017-09-22T03:50:41.252Z,15.6
2017-09-22T03:51:43.633Z,15.7
2017-09-22T03:52:46.023Z,15.7
2017-09-22T03:53:48.412Z,15.6
2017-09-22T03:54:50.807Z,15.7
2017-09-22T03:55:53.199Z,15.7
2017-09-22T03:56:55.583Z,15.7
2017-09-22T03:57:57.992Z,15.7
2017-09-22T03:59:00.389Z,15.7
2017-09-22T04:00:02.794Z,15.7
2017-09-22T04:01:05.161Z,15.7
2017-09-22T04:02:07.558Z,15.7
2017-09-22T04:03:09.941Z,15.7
2017-09-22T04:04:12.686Z,15.7
2017-09-22T04:05:15.076Z,15.6
2017-09-22T04:06:17.460Z,15.5
2017-09-22T04:07:19.853Z,15.5
2017-09-22T04:08:22.243Z,15.5
2017-09-22T04:09:24.638Z,15.4
2017-09-22T04:10:27.026Z,15.4
2017-09-22T04:11:29.772Z,15.4
2017-09-22T04:12:32.168Z,15.3
2017-09-22T04:13:34.568Z,15.3
2017-09-22T04:14:36.958Z,15.3
2017-09-22T04:15:39.351Z,15.3
2017-09-22T04:16:42.082Z,15.3
2017-09-22T04:17:44.473Z,15.3
2017-09-22T04:18:46.868Z,15.3
2017-09-22T04:19:49.262Z,15.2
2017-09-22T04:20:51.990Z,15.2
2017-09-22T04:21:54.724Z,15.2
2017-09-22T04:22:57.117Z,15.3
2017-09-22T04:23:59.507Z,15.2
2017-09-22T04:25:01.913Z,15.3
2017-09-22T04:26:04.304Z,15.3
2017-09-22T04:27:06.704Z,15.3
2017-09-22T04:28:09.098Z,15.2
2017-09-22T04:29:11.484Z,15.3
2017-09-22T04:30:13.882Z,15.2
2017-09-22T04:31:16.277Z,15.2
2017-09-22T04:32:18.658Z,15.2
2017-09-22T04:33:21.054Z,15.2
2017-09-22T04:34:23.443Z,15.2
2017-09-22T04:35:25.830Z,15.2
2017-09-22T04:36:28.236Z,15.2
2017-09-22T04:37:30.960Z,15.1
2017-09-22T04:38:33.350Z,15.2
2017-09-22T04:39:35.750Z,15.1
2017-09-22T04:40:38.135Z,15.1
2017-09-22T04:41:40.531Z,15.1
2017-09-22T04:42:42.924Z,15.1
2017-09-22T04:43:45.658Z,15.1
2017-09-22T04:44:48.054Z,15
2017-09-22T04:45:50.790Z,15
2017-09-22T04:46:53.169Z,15
2017-09-22T04:47:55.567Z,15
2017-09-22T04:48:57.962Z,15
2017-09-22T04:50:00.347Z,15
2017-09-22T04:51:03.090Z,15
2017-09-22T04:52:05.485Z,15
2017-09-22T04:53:07.877Z,14.9
2017-09-22T04:54:10.271Z,14.9
2017-09-22T04:55:12.998Z,14.9
2017-09-22T04:56:15.385Z,14.9
2017-09-22T04:57:17.782Z,14.8
2017-09-22T04:58:20.160Z,14.8
2017-09-22T04:59:22.889Z,14.8
2017-09-22T05:00:25.623Z,14.8
2017-09-22T05:01:28.019Z,14.8
2017-09-22T05:02:30.413Z,14.8
2017-09-22T05:03:32.804Z,14.8
2017-09-22T05:04:35.194Z,14.8
2017-09-22T05:05:37.595Z,14.8
2017-09-22T05:06:39.991Z,14.8
2017-09-22T05:07:42.385Z,14.8
2017-09-22T05:08:44.779Z,14.9
2017-09-22T05:09:47.510Z,14.9
2017-09-22T05:10:49.901Z,14.9
2017-09-22T05:11:52.297Z,14.9
2017-09-22T05:12:54.682Z,14.9
2017-09-22T05:13:57.070Z,14.9
2017-09-22T05:14:59.463Z,14.9
2017-09-22T05:16:01.862Z,14.9
2017-09-22T05:17:04.252Z,14.9
2017-09-22T05:18:06.643Z,14.9
2017-09-22T05:19:09.031Z,14.9
2017-09-22T05:20:11.424Z,14.9
2017-09-22T05:21:13.810Z,14.9
2017-09-22T05:22:16.213Z,14.9
2017-09-22T05:23:18.599Z,14.8
2017-09-22T05:24:20.981Z,14.8
2017-09-22T05:25:23.376Z,14.8
2017-09-22T05:26:25.775Z,14.8
2017-09-22T05:27:28.168Z,14.8
2017-09-22T05:28:30.563Z,14.8
2017-09-22T05:29:32.945Z,14.7
2017-09-22T05:30:35.673Z,14.7
2017-09-22T05:31:38.753Z,14.7
2017-09-22T05:32:41.141Z,14.7
2017-09-22T05:33:43.864Z,14.7
2017-09-22T05:34:46.251Z,14.8
2017-09-22T05:35:48.641Z,14.8
2017-09-22T05:36:51.044Z,14.8
2017-09-22T05:37:53.433Z,14.8
2017-09-22T05:38:55.822Z,14.8
2017-09-22T05:39:58.207Z,14.8
2017-09-22T05:41:00.597Z,14.8
2017-09-22T05:42:02.995Z,14.8
2017-09-22T05:43:05.387Z,14.8
2017-09-22T05:44:07.772Z,14.8
2017-09-22T05:45:10.170Z,14.8
2017-09-22T05:46:13.251Z,14.8
2017-09-22T05:47:15.639Z,14.8
2017-09-22T05:48:18.027Z,14.8
2017-09-22T05:49:20.924Z,14.7
2017-09-22T05:50:27.026Z,14.8
2017-09-22T05:51:29.413Z,14.8
2017-09-22T05:52:31.802Z,14.8
2017-09-22T05:53:34.200Z,14.8
2017-09-22T05:54:36.920Z,14.8
2017-09-22T05:55:39.318Z,14.8
2017-09-22T05:56:41.710Z,14.8
2017-09-22T05:57:44.096Z,14.8
2017-09-22T05:58:46.490Z,14.8
2017-09-22T05:59:48.881Z,14.8
2017-09-22T06:00:51.298Z,14.8
2017-09-22T06:01:53.763Z,14.9
2017-09-22T06:02:56.147Z,14.9
2017-09-22T06:03:58.894Z,14.9
2017-09-22T06:05:01.287Z,14.9
2017-09-22T06:06:03.681Z,14.9
2017-09-22T06:07:06.418Z,14.9
2017-09-22T06:08:08.820Z,15
2017-09-22T06:09:11.541Z,15
2017-09-22T06:10:13.936Z,15
2017-09-22T06:11:16.664Z,15
2017-09-22T06:12:19.725Z,15
2017-09-22T06:13:22.117Z,15.1
2017-09-22T06:14:24.556Z,15.1
2017-09-22T06:15:26.971Z,15.1
2017-09-22T06:16:29.363Z,15.1
2017-09-22T06:17:31.755Z,15.2
2017-09-22T06:18:34.148Z,15.3
2017-09-22T06:19:36.528Z,15.3
2017-09-22T06:20:38.923Z,15.3
2017-09-22T06:21:41.314Z,15.4
2017-09-22T06:22:43.700Z,15.4
2017-09-22T06:23:46.095Z,15.5
2017-09-22T06:24:48.492Z,15.5
2017-09-22T06:25:50.883Z,15.5
2017-09-22T06:26:53.275Z,15.6
2017-09-22T06:27:55.667Z,15.6
2017-09-22T06:28:58.054Z,15.7
2017-09-22T06:30:00.449Z,15.7
2017-09-22T06:31:02.841Z,15.7
2017-09-22T06:32:05.236Z,15.7
2017-09-22T06:33:07.627Z,15.8
2017-09-22T06:34:10.011Z,15.8
2017-09-22T06:35:12.745Z,15.8
2017-09-22T06:36:15.139Z,15.8
2017-09-22T06:37:17.530Z,15.9
2017-09-22T06:38:19.926Z,15.9
2017-09-22T06:39:22.316Z,16
2017-09-22T06:40:24.706Z,16
2017-09-22T06:41:27.102Z,16
2017-09-22T06:42:29.498Z,16.1
2017-09-22T06:43:31.886Z,16.1
2017-09-22T06:44:34.283Z,16.2
2017-09-22T06:45:36.675Z,16.3
2017-09-22T06:46:39.065Z,16.3
2017-09-22T06:47:41.457Z,16.4
2017-09-22T06:48:43.848Z,16.4
2017-09-22T06:49:46.239Z,16.5
2017-09-22T06:50:48.640Z,16.5
2017-09-22T06:51:51.032Z,16.5
2017-09-22T06:52:53.757Z,16.6
2017-09-22T06:53:56.510Z,16.6
2017-09-22T06:54:58.898Z,16.7
2017-09-22T06:56:01.299Z,16.7
2017-09-22T06:57:03.696Z,16.8
2017-09-22T06:58:06.086Z,16.8
2017-09-22T06:59:08.479Z,16.8
2017-09-22T07:00:10.878Z,16.8
2017-09-22T07:01:13.602Z,16.8
2017-09-22T07:02:15.995Z,16.8
2017-09-22T07:03:18.386Z,16.8
2017-09-22T07:04:21.106Z,16.9
2017-09-22T07:05:23.504Z,16.9
2017-09-22T07:06:25.894Z,17
2017-09-22T07:07:28.287Z,17
2017-09-22T07:08:30.679Z,17.1
2017-09-22T07:09:33.073Z,17.1
2017-09-22T07:10:35.802Z,17.2
2017-09-22T07:11:38.207Z,17.1
2017-09-22T07:12:40.949Z,17.2
2017-09-22T07:13:43.336Z,17.2
2017-09-22T07:14:45.723Z,17.3
2017-09-22T07:15:48.455Z,17.4
2017-09-22T07:16:50.844Z,17.4
2017-09-22T07:17:53.240Z,17.5
2017-09-22T07:18:55.635Z,17.6
2017-09-22T07:19:58.372Z,17.6
2017-09-22T07:21:00.769Z,17.7
2017-09-22T07:22:03.169Z,17.7
2017-09-22T07:23:05.554Z,17.8
2017-09-22T07:24:07.952Z,17.8
2017-09-22T07:25:10.343Z,17.9
2017-09-22T07:26:12.737Z,17.9
2017-09-22T07:27:15.129Z,18
2017-09-22T07:28:17.530Z,18
2017-09-22T07:29:19.926Z,18.1
2017-09-22T07:30:22.317Z,18.2
2017-09-22T07:31:24.710Z,18.2
2017-09-22T07:32:27.105Z,18.3
2017-09-22T07:33:29.503Z,18.4
2017-09-22T07:34:31.904Z,18.5
2017-09-22T07:35:34.288Z,18.6
2017-09-22T07:36:36.684Z,18.7
2017-09-22T07:37:39.089Z,18.7
2017-09-22T07:38:41.477Z,18.8
2017-09-22T07:39:44.207Z,18.9
2017-09-22T07:40:46.603Z,18.9
2017-09-22T07:41:48.994Z,19
2017-09-22T07:42:51.400Z,19
2017-09-22T07:43:53.797Z,19.1
2017-09-22T07:44:56.184Z,19.1
2017-09-22T07:45:58.947Z,19.2
2017-09-22T07:47:01.676Z,19.2
2017-09-22T07:48:04.069Z,19.2
2017-09-22T07:49:06.465Z,19.3
2017-09-22T07:50:08.863Z,19.3
2017-09-22T07:51:11.265Z,19.3
2017-09-22T07:52:13.655Z,19.4
2017-09-22T07:53:16.055Z,19.5
2017-09-22T07:54:18.453Z,19.5
2017-09-22T07:55:20.847Z,19.5
2017-09-22T07:56:23.255Z,19.6
2017-09-22T07:57:25.655Z,19.6
2017-09-22T07:58:28.053Z,19.7
2017-09-22T07:59:30.812Z,19.8
2017-09-22T08:00:33.548Z,19.8
2017-09-22T08:01:35.951Z,19.8
2017-09-22T08:02:38.347Z,19.9
2017-09-22T08:03:40.742Z,19.9
2017-09-22T08:04:43.143Z,19.9
2017-09-22T08:05:45.541Z,20
2017-09-22T08:06:47.934Z,20.1
2017-09-22T08:07:50.332Z,20.1
2017-09-22T08:08:52.720Z,20.1
2017-09-22T08:09:55.119Z,20.2
2017-09-22T08:10:57.523Z,20.3
2017-09-22T08:12:00.283Z,20.3
2017-09-22T08:13:02.681Z,20.5
2017-09-22T08:14:05.080Z,20.6
2017-09-22T08:15:07.495Z,20.7
2017-09-22T08:16:09.886Z,20.9
2017-09-22T08:17:12.285Z,21
2017-09-22T08:18:15.023Z,21.2
2017-09-22T08:19:17.432Z,21.3
2017-09-22T08:20:19.829Z,21.5
2017-09-22T08:21:22.232Z,21.7
2017-09-22T08:22:24.627Z,21.8
2017-09-22T08:23:27.035Z,22
2017-09-22T08:24:29.436Z,22.2
2017-09-22T08:25:31.827Z,22.4
2017-09-22T08:26:34.232Z,22.6
2017-09-22T08:27:36.627Z,22.7
2017-09-22T08:28:39.372Z,23
2017-09-22T08:29:41.778Z,23.2
2017-09-22T08:30:44.180Z,23.3
2017-09-22T08:31:46.580Z,23.6
2017-09-22T08:32:48.991Z,23.8
2017-09-22T08:33:51.394Z,24
2017-09-22T08:34:53.794Z,24.2
2017-09-22T08:35:56.203Z,24.4
2017-09-22T08:36:58.603Z,24.6
2017-09-22T08:38:01.005Z,24.8
2017-09-22T08:39:03.413Z,25
2017-09-22T08:40:05.815Z,25.2
2017-09-22T08:41:08.220Z,25.4
2017-09-22T08:42:10.630Z,25.6
2017-09-22T08:43:13.030Z,25.7
2017-09-22T08:44:15.774Z,25.9
2017-09-22T08:45:18.528Z,26.1
2017-09-22T08:46:21.302Z,26.2
2017-09-22T08:47:23.710Z,26.4
2017-09-22T08:48:26.122Z,26.5
2017-09-22T08:49:28.524Z,26.6
2017-09-22T08:50:30.931Z,26.8
2017-09-22T08:51:33.346Z,26.9
2017-09-22T08:52:35.753Z,27.1
2017-09-22T08:53:38.498Z,27.2
2017-09-22T08:54:40.926Z,27.3
2017-09-22T08:55:43.304Z,27.4
2017-09-22T08:56:45.729Z,27.6
2017-09-22T08:57:48.140Z,27.7
2017-09-22T08:58:50.540Z,27.8
2017-09-22T08:59:52.959Z,27.9
2017-09-22T09:00:55.368Z,28
2017-09-22T09:01:57.775Z,28.1
2017-09-22T09:03:00.185Z,28.2
2017-09-22T09:04:02.597Z,28.3
2017-09-22T09:05:05.008Z,28.4
2017-09-22T09:06:07.431Z,28.5
2017-09-22T09:07:09.833Z,28.6
2017-09-22T09:08:12.242Z,28.7
2017-09-22T09:09:14.989Z,28.8
2017-09-22T09:10:17.405Z,28.8
2017-09-22T09:11:19.820Z,28.9
2017-09-22T09:12:22.231Z,29
2017-09-22T09:13:24.638Z,29
2017-09-22T09:14:27.051Z,29.1
2017-09-22T09:15:29.464Z,29.2
2017-09-22T09:16:31.874Z,29.3
2017-09-22T09:17:34.284Z,29.3
2017-09-22T09:18:36.694Z,29.5
2017-09-22T09:19:39.110Z,29.5
2017-09-22T09:20:41.512Z,29.6
2017-09-22T09:21:43.926Z,29.7
2017-09-22T09:22:46.341Z,29.9
2017-09-22T09:23:48.750Z,30
2017-09-22T09:24:51.172Z,30
2017-09-22T09:25:53.590Z,30.1
2017-09-22T09:26:56.009Z,30.1
2017-09-22T09:27:58.425Z,30.1
2017-09-22T09:29:00.834Z,30
2017-09-22T09:30:03.243Z,29.9
2017-09-22T09:31:05.660Z,29.7
2017-09-22T09:32:08.065Z,29.5
2017-09-22T09:33:10.819Z,29.3
2017-09-22T09:34:13.235Z,29.2
2017-09-22T09:35:15.648Z,29.1
2017-09-22T09:36:18.058Z,29.1
2017-09-22T09:37:20.468Z,29.1
2017-09-22T09:38:22.876Z,29.1
2017-09-22T09:39:25.298Z,29.2
2017-09-22T09:40:27.713Z,29.3
2017-09-22T09:41:30.122Z,29.4
2017-09-22T09:42:32.537Z,29.5
2017-09-22T09:43:34.946Z,29.6
2017-09-22T09:44:37.353Z,29.6
2017-09-22T09:45:39.766Z,29.7
2017-09-22T09:46:42.177Z,29.8
2017-09-22T09:47:44.590Z,29.9
2017-09-22T09:48:46.994Z,30
2017-09-22T09:49:49.747Z,30.1
2017-09-22T09:50:52.165Z,30.2
2017-09-22T09:51:54.578Z,30.3
2017-09-22T09:52:56.991Z,30.5
2017-09-22T09:53:59.733Z,30.6
2017-09-22T09:55:02.144Z,30.6
2017-09-22T09:56:04.564Z,30.7
2017-09-22T09:57:06.971Z,30.7
2017-09-22T09:58:09.393Z,30.8
2017-09-22T09:59:11.809Z,30.9
2017-09-22T10:00:14.214Z,31
2017-09-22T10:01:16.622Z,31.1
2017-09-22T10:02:19.035Z,31.2
2017-09-22T10:03:21.450Z,31.3
2017-09-22T10:04:23.870Z,31.4
2017-09-22T10:05:26.282Z,31.5
2017-09-22T10:06:28.691Z,31.5
2017-09-22T10:07:31.120Z,31.6
2017-09-22T10:08:33.528Z,31.7
2017-09-22T10:09:35.941Z,31.7
2017-09-22T10:10:38.351Z,31.8
2017-09-22T10:11:40.764Z,31.9
2017-09-22T10:12:43.175Z,32
2017-09-22T10:13:45.587Z,32.1
2017-09-22T10:14:48.003Z,32.2
2017-09-22T10:15:50.416Z,32.3
2017-09-22T10:16:52.828Z,32.4
2017-09-22T10:17:55.241Z,32.5
2017-09-22T10:18:57.660Z,32.6
2017-09-22T10:20:00.067Z,32.6
2017-09-22T10:21:02.490Z,32.7
2017-09-22T10:22:04.900Z,32.8
2017-09-22T10:23:07.313Z,32.9
2017-09-22T10:24:10.066Z,32.9
2017-09-22T10:25:12.819Z,33
2017-09-22T10:26:15.234Z,33
2017-09-22T10:27:17.662Z,33.1
2017-09-22T10:28:20.069Z,33.1
2017-09-22T10:29:22.491Z,33.1
2017-09-22T10:30:24.906Z,33.2
2017-09-22T10:31:27.307Z,33.2
2017-09-22T10:32:29.725Z,33.2
2017-09-22T10:33:32.486Z,33.2
2017-09-22T10:34:34.902Z,33.2
2017-09-22T10:35:37.316Z,33.2
2017-09-22T10:36:39.728Z,33.2
2017-09-22T10:37:42.144Z,33.3
2017-09-22T10:38:45.274Z,33.3
2017-09-22T10:39:47.682Z,33.3
2017-09-22T10:40:50.097Z,33.3
2017-09-22T10:41:52.518Z,33.3
2017-09-22T10:42:54.935Z,33.4
2017-09-22T10:43:57.351Z,33.4
2017-09-22T10:44:59.763Z,33.4
2017-09-22T10:46:02.188Z,33.4
2017-09-22T10:47:04.946Z,33.4
2017-09-22T10:48:07.355Z,33.5
2017-09-22T10:49:09.775Z,33.5
2017-09-22T10:50:12.187Z,33.6
2017-09-22T10:51:14.594Z,33.7
2017-09-22T10:52:17.008Z,33.7
2017-09-22T10:53:19.419Z,33.8
2017-09-22T10:54:21.840Z,33.9
2017-09-22T10:55:24.267Z,33.9
2017-09-22T10:56:26.677Z,34
2017-09-22T10:57:29.094Z,34
2017-09-22T10:58:31.512Z,34.1
2017-09-22T10:59:33.932Z,34.1
2017-09-22T11:00:36.356Z,34.3
2017-09-22T11:01:38.767Z,34.2
2017-09-22T11:02:41.177Z,34.2
2017-09-22T11:03:43.598Z,34.2
2017-09-22T11:04:46.010Z,34.1
2017-09-22T11:05:48.428Z,34.1
2017-09-22T11:06:50.849Z,34.1
2017-09-22T11:07:53.260Z,33.9
2017-09-22T11:08:55.680Z,33.8
2017-09-22T11:09:58.098Z,33.7
2017-09-22T11:11:00.511Z,33.5
2017-09-22T11:12:03.286Z,33.3
2017-09-22T11:13:05.706Z,33.2
2017-09-22T11:14:08.132Z,33.1
2017-09-22T11:15:10.548Z,33
2017-09-22T11:16:12.964Z,33
2017-09-22T11:17:15.381Z,32.9
2017-09-22T11:18:17.835Z,32.9
2017-09-22T11:19:20.224Z,32.9
2017-09-22T11:20:22.644Z,32.8
2017-09-22T11:21:25.045Z,32.8
2017-09-22T11:22:27.460Z,32.7
2017-09-22T11:23:29.882Z,32.6
2017-09-22T11:24:32.300Z,32.5
2017-09-22T11:25:34.716Z,32.5
2017-09-22T11:26:37.128Z,32.4
2017-09-22T11:27:39.532Z,32.4
2017-09-22T11:28:41.954Z,32.4
2017-09-22T11:29:44.369Z,32.5
2017-09-22T11:30:46.784Z,32.5
2017-09-22T11:31:49.541Z,32.6
2017-09-22T11:32:51.956Z,32.6
2017-09-22T11:33:54.359Z,32.7
2017-09-22T11:34:56.780Z,32.7
2017-09-22T11:35:59.523Z,32.8
2017-09-22T11:37:01.941Z,32.8
2017-09-22T11:38:04.361Z,32.9
2017-09-22T11:39:06.783Z,33
2017-09-22T11:40:09.196Z,33.1
2017-09-22T11:41:11.609Z,33.1
2017-09-22T11:42:14.024Z,33.3
2017-09-22T11:43:16.433Z,33.3
2017-09-22T11:44:18.850Z,33.4
2017-09-22T11:45:21.642Z,33.4
2017-09-22T11:46:24.061Z,33.5
2017-09-22T11:47:26.472Z,33.6
2017-09-22T11:48:28.888Z,33.6
2017-09-22T11:49:31.301Z,33.7
2017-09-22T11:50:34.065Z,33.7
2017-09-22T11:51:36.822Z,33.7
2017-09-22T11:52:39.238Z,33.7
2017-09-22T11:53:41.649Z,33.7
2017-09-22T11:54:44.077Z,33.7
2017-09-22T11:55:46.497Z,33.7
2017-09-22T11:56:48.908Z,33.8
2017-09-22T11:57:51.320Z,33.8
2017-09-22T11:58:54.070Z,33.9
2017-09-22T11:59:56.490Z,33.9
2017-09-22T12:00:59.247Z,33.9
2017-09-22T12:02:01.653Z,34
2017-09-22T12:03:04.070Z,33.9
2017-09-22T12:04:06.488Z,33.9
2017-09-22T12:05:08.904Z,33.9
2017-09-22T12:06:11.325Z,33.9
2017-09-22T12:07:13.742Z,33.8
2017-09-22T12:08:16.508Z,33.9
2017-09-22T12:09:18.928Z,33.8
2017-09-22T12:10:21.344Z,33.8
2017-09-22T12:11:23.755Z,33.9
2017-09-22T12:12:26.171Z,33.9
2017-09-22T12:13:28.581Z,33.9
2017-09-22T12:14:30.997Z,33.9
2017-09-22T12:15:33.417Z,33.9
2017-09-22T12:16:35.838Z,33.9
2017-09-22T12:17:38.257Z,33.9
2017-09-22T12:18:40.686Z,33.9
2017-09-22T12:19:43.120Z,33.7
2017-09-22T12:20:45.552Z,33.6
2017-09-22T12:21:48.192Z,33.5
2017-09-22T12:22:50.616Z,33.4
2017-09-22T12:23:53.203Z,33.3
2017-09-22T12:24:55.636Z,33.3
2017-09-22T12:25:58.089Z,33.3
2017-09-22T12:27:00.515Z,33.2
2017-09-22T12:28:02.934Z,33.1
2017-09-22T12:29:05.375Z,33
2017-09-22T12:30:07.800Z,32.9
2017-09-22T12:31:10.249Z,32.8
2017-09-22T12:32:12.666Z,32.7
2017-09-22T12:33:15.082Z,32.6
2017-09-22T12:34:17.506Z,32.6
2017-09-22T12:35:19.928Z,32.6
2017-09-22T12:36:22.362Z,32.5
2017-09-22T12:37:24.779Z,32.5
2017-09-22T12:38:27.556Z,32.4
2017-09-22T12:39:30.020Z,32.3
2017-09-22T12:40:32.484Z,32.2
2017-09-22T12:41:35.051Z,32.1
2017-09-22T12:42:38.331Z,32.1
2017-09-22T12:43:40.877Z,32.1
2017-09-22T12:44:43.314Z,32.1
2017-09-22T12:45:45.765Z,32.1
2017-09-22T12:46:48.276Z,32.1
2017-09-22T12:47:50.764Z,32.1
2017-09-22T12:48:53.570Z,32.1
2017-09-22T12:49:56.022Z,32
2017-09-22T12:50:58.501Z,32.1
2017-09-22T12:52:00.985Z,32.1
2017-09-22T12:53:03.411Z,32
2017-09-22T12:54:05.867Z,32
2017-09-22T12:55:08.445Z,32
2017-09-22T12:56:10.908Z,32
2017-09-22T12:57:13.493Z,32
2017-09-22T12:58:15.971Z,32
2017-09-22T12:59:18.381Z,31.9
2017-09-22T13:00:21.151Z,31.8
2017-09-22T13:01:23.579Z,31.8
2017-09-22T13:02:26.011Z,31.7
2017-09-22T13:03:28.477Z,31.6
2017-09-22T13:04:30.865Z,31.5
2017-09-22T13:05:33.296Z,31.4
2017-09-22T13:06:35.735Z,31.4
2017-09-22T13:07:38.158Z,31.4
2017-09-22T13:08:40.581Z,31.3
2017-09-22T13:09:43.000Z,31.3
2017-09-22T13:10:45.418Z,31.3
2017-09-22T13:11:48.182Z,31.2
2017-09-22T13:12:50.596Z,31.2
2017-09-22T13:13:53.007Z,31.2
2017-09-22T13:14:55.421Z,31.2
2017-09-22T13:15:57.826Z,31.1
2017-09-22T13:17:00.241Z,31.1
2017-09-22T13:18:02.997Z,31.1
2017-09-22T13:19:05.406Z,31.1
2017-09-22T13:20:07.824Z,31.1
2017-09-22T13:21:10.236Z,31
2017-09-22T13:22:12.666Z,31
2017-09-22T13:23:15.083Z,31
2017-09-22T13:24:17.512Z,31
2017-09-22T13:25:19.929Z,31
2017-09-22T13:26:22.688Z,31
2017-09-22T13:27:25.103Z,31
2017-09-22T13:28:27.515Z,31
2017-09-22T13:29:29.929Z,31
2017-09-22T13:30:32.336Z,31
2017-09-22T13:31:34.752Z,31
2017-09-22T13:32:37.175Z,31.1
2017-09-22T13:33:39.579Z,31.1
2017-09-22T13:34:42.000Z,31.2
2017-09-22T13:35:44.761Z,31.2
2017-09-22T13:36:47.862Z,31.2
2017-09-22T13:37:50.618Z,31.3
2017-09-22T13:38:53.036Z,31.3
2017-09-22T13:39:55.782Z,31.3
2017-09-22T13:40:58.204Z,31.3
2017-09-22T13:42:00.632Z,31.3
2017-09-22T13:43:03.066Z,31.3
2017-09-22T13:44:05.473Z,31.3
2017-09-22T13:45:07.889Z,31.3
2017-09-22T13:46:10.307Z,31.3
2017-09-22T13:47:13.064Z,31.3
2017-09-22T13:48:15.481Z,31.3
2017-09-22T13:49:17.895Z,31.3
2017-09-22T13:50:20.303Z,31.3
2017-09-22T13:51:23.077Z,31.3
2017-09-22T13:52:25.495Z,31.3
2017-09-22T13:53:27.904Z,31.3
2017-09-22T13:54:30.328Z,31.4
2017-09-22T13:55:33.082Z,31.4
2017-09-22T13:56:35.493Z,31.4
2017-09-22T13:57:37.919Z,31.4